Time;durP1;ratioP1;P1;durP2;ratioP2;P2;SDS_P1;SDS_P2;PMS_P1;PMS_P2;Temp;Humidity;BMP_temperature;BMP_pressure;BME280_temperature;BME280_humidity;BME280_pressure;Samples;Min_cycle;Max_cycle;Signal;HPM_P1;HPM_P2
2022/05/28 00:01:55;;;;;;;2.35;1.92;;;;;;;11.38;78.01;98770.20;1694573;84;21064;-40
2022/05/28 00:04:22;;;;;;;2.65;1.87;;;;;;;11.36;78.01;98761.10;1694724;84;21192;-40
2022/05/28 00:06:49;;;;;;;2.83;1.77;;;;;;;11.33;77.86;98732.77;1694600;84;21081;-40
2022/05/28 00:09:16;;;;;;;2.15;1.35;;;;;;;11.36;77.86;98731.25;1694592;84;21103;-40
2022/05/28 00:11:44;;;;;;;3.00;1.92;;;;;;;11.43;77.87;98704.70;1694581;84;21114;-40
2022/05/28 00:14:11;;;;;;;2.10;1.90;;;;;;;11.44;77.71;98727.41;1695688;83;21036;-41
2022/05/28 00:16:38;;;;;;;3.67;1.80;;;;;;;11.42;77.54;98714.81;1710050;83;21165;-40
2022/05/28 00:19:06;;;;;;;2.25;1.50;;;;;;;11.42;77.56;98705.89;1700146;84;21038;-40
2022/05/28 00:21:33;;;;;;;4.15;1.80;;;;;;;11.46;77.54;98703.39;1709862;83;21008;-40
2022/05/28 00:24:00;;;;;;;2.67;1.80;;;;;;;11.50;77.50;98727.25;1700133;84;21124;-40
2022/05/28 00:26:27;;;;;;;2.60;1.60;;;;;;;11.48;77.28;98727.42;1709618;83;21056;-40
2022/05/28 00:28:54;;;;;;;2.92;1.90;;;;;;;11.40;77.35;98733.40;1700195;84;21254;-40
2022/05/28 00:31:21;;;;;;;3.47;1.95;;;;;;;11.36;77.37;98731.25;1709452;83;20981;-40
2022/05/28 00:33:49;;;;;;;2.90;2.00;;;;;;;11.38;77.65;98735.70;1700267;84;20988;-40
2022/05/28 00:36:16;;;;;;;3.05;1.75;;;;;;;11.39;77.64;98734.55;1709859;83;20910;-40
2022/05/28 00:38:43;;;;;;;2.40;1.70;;;;;;;11.36;77.80;98727.75;1700181;84;21100;-40
2022/05/28 00:41:11;;;;;;;3.70;1.90;;;;;;;11.32;77.84;98725.03;1709954;83;21230;-40
2022/05/28 00:43:40;;;;;;;4.22;1.62;;;;;;;11.30;77.85;98740.90;1700206;84;20993;-40
2022/05/28 00:46:11;;;;;;;1.98;1.77;;;;;;;11.32;77.83;98742.67;1710419;83;21515;-40
2022/05/28 00:48:40;;;;;;;3.33;2.55;;;;;;;11.30;77.70;98724.05;1700363;84;21057;-40
2022/05/28 00:51:10;;;;;;;;;;;;;;;11.25;77.77;98712.77;1712737;83;21061;-40
2022/05/28 00:53:36;;;;;;;3.50;1.82;;;;;;;11.26;77.97;98723.25;1709923;83;20616;-40
2022/05/28 00:56:04;;;;;;;4.33;2.00;;;;;;;11.24;77.86;98732.91;1700493;84;21516;-40
2022/05/28 00:58:32;;;;;;;2.70;1.70;;;;;;;11.23;77.68;98735.45;1709709;83;21579;-40
2022/05/28 01:00:59;;;;;;;3.65;1.90;;;;;;;11.17;77.94;98747.23;1700410;84;21067;-40
2022/05/28 01:03:36;;;;;;;2.15;1.70;;;;;;;11.12;78.18;98731.30;1709730;83;20984;-40
2022/05/28 01:06:24;;;;;;;4.33;1.98;;;;;;;11.16;78.32;98740.23;1700001;84;23117;-40
2022/05/28 01:09:02;;;;;;;3.42;2.22;;;;;;;11.17;78.25;98735.02;1709627;83;21613;-40
2022/05/28 01:11:44;;;;;;;2.98;2.00;;;;;;;11.13;78.19;98736.94;1679931;85;21066;-40
2022/05/28 01:14:24;;;;;;;5.45;2.10;;;;;;;11.15;78.30;98733.83;1699746;83;21064;-41
2022/05/28 01:16:54;;;;;;;2.15;1.95;;;;;;;11.17;78.08;98720.09;1709651;83;21049;-40
2022/05/28 01:19:50;;;;;;;5.92;2.05;;;;;;;11.18;78.01;98709.42;1700444;84;21186;-40
2022/05/28 01:22:37;;;;;;;2.40;1.87;;;;;;;11.20;77.77;98722.63;1709022;83;21621;-40
2022/05/28 01:25:34;;;;;;;3.55;2.10;;;;;;;11.13;78.03;98738.87;1700063;84;21036;-40
2022/05/28 01:28:06;;;;;;;3.40;2.00;;;;;;;11.11;77.93;98731.67;1705345;83;21068;-40
2022/05/28 01:30:32;;;;;;;2.92;2.10;;;;;;;11.12;77.92;98735.37;1700104;84;21124;-40
2022/05/28 01:33:00;;;;;;;4.45;2.05;;;;;;;11.11;77.99;98734.38;1709767;83;21292;-40
2022/05/28 01:35:28;;;;;;;3.50;2.20;;;;;;;11.08;77.94;98753.56;1699918;84;21614;-40
2022/05/28 01:37:55;;;;;;;3.05;1.77;;;;;;;11.07;78.12;98743.08;1709778;83;21475;-40
2022/05/28 01:40:22;;;;;;;3.98;2.00;;;;;;;11.10;78.07;98728.75;1622102;85;21076;-40
2022/05/28 01:42:52;;;;;;;6.33;2.30;;;;;;;11.11;77.80;98730.31;1700076;84;21080;-40
2022/05/28 01:45:22;;;;;;;3.80;2.42;;;;;;;11.06;77.84;98740.94;1709457;83;22377;-40
2022/05/28 01:47:49;;;;;;;;;;;;;;;11.03;77.96;98745.00;1702603;84;21590;-41
2022/05/28 01:50:18;;;;;;;3.25;2.17;;;;;;;11.04;78.17;98739.17;1700017;84;20354;-41
2022/05/28 01:52:45;;;;;;;2.98;2.20;;;;;;;11.01;78.38;98721.53;1709666;83;20988;-40
2022/05/28 01:55:14;;;;;;;3.65;2.40;;;;;;;11.04;78.19;98734.33;1699975;84;21633;-40
2022/05/28 01:57:41;;;;;;;3.98;2.17;;;;;;;11.06;77.93;98733.38;1709837;83;21124;-40
2022/05/28 02:00:10;;;;;;;5.17;2.27;;;;;;;11.07;77.90;98716.73;1700069;84;20996;-41
2022/05/28 02:02:37;;;;;;;2.45;1.98;;;;;;;11.14;77.85;98711.91;1710071;83;21085;-41
2022/05/28 02:05:06;;;;;;;4.65;2.30;;;;;;;11.17;77.77;98702.47;1700433;84;21064;-40
2022/05/28 02:07:33;;;;;;;5.20;2.67;;;;;;;11.20;77.53;98709.84;1710119;83;21049;-40
2022/05/28 02:10:09;;;;;;;3.40;2.02;;;;;;;11.19;77.47;98712.91;1700252;84;21141;-40
2022/05/28 02:13:02;;;;;;;5.17;1.87;;;;;;;11.19;77.33;98714.27;1709794;83;21488;-40
2022/05/28 02:15:38;;;;;;;4.47;2.37;;;;;;;11.20;77.41;98714.48;1683743;84;21024;-40
2022/05/28 02:18:13;;;;;;;5.80;2.33;;;;;;;11.19;77.43;98726.48;1680333;84;21025;-40
2022/05/28 02:21:06;;;;;;;3.92;1.98;;;;;;;11.16;77.60;98748.95;1680481;85;21032;-40
2022/05/28 02:23:56;;;;;;;4.62;2.15;;;;;;;11.16;77.64;98751.09;1678739;85;23224;-40
2022/05/28 02:26:43;;;;;;;3.33;2.37;;;;;;;11.18;77.53;98749.36;1739518;82;21030;-40
2022/05/28 02:29:11;;;;;;;5.37;2.67;;;;;;;11.20;77.52;98728.83;1739361;82;21022;-40
2022/05/28 02:31:37;;;;;;;4.67;2.37;;;;;;;11.20;77.50;98726.11;1739784;82;21030;-40
2022/05/28 02:34:04;;;;;;;2.62;1.82;;;;;;;11.22;77.34;98725.74;1739261;82;21064;-40
2022/05/28 02:36:31;;;;;;;3.90;2.00;;;;;;;11.23;77.25;98730.02;1739302;82;23222;-40
2022/05/28 02:38:58;;;;;;;4.80;2.10;;;;;;;11.23;77.12;98736.80;1739259;82;21045;-40
2022/05/28 02:41:24;;;;;;;2.85;2.02;;;;;;;11.21;77.20;98738.53;1739451;82;20977;-40
2022/05/28 02:43:52;;;;;;;4.83;2.10;;;;;;;11.18;77.27;98735.80;1739535;82;20974;-40
2022/05/28 02:46:21;;;;;;;3.70;2.30;;;;;;;11.18;77.42;98743.94;1739381;82;21017;-41
2022/05/28 02:48:47;;;;;;;2.08;1.77;;;;;;;11.20;77.50;98747.03;1739717;82;21113;-40
2022/05/28 02:51:19;;;;;;;2.45;1.90;;;;;;;11.23;77.58;98733.48;1739117;82;21568;-40
2022/05/28 02:53:47;;;;;;;3.37;2.22;;;;;;;11.22;77.39;98729.81;1738967;82;22179;-40
2022/05/28 02:56:15;;;;;;;2.87;2.20;;;;;;;11.21;77.57;98718.18;1740030;82;20974;-40
2022/05/28 02:58:41;;;;;;;3.80;2.52;;;;;;;11.21;77.38;98718.75;1739334;82;21065;-40
2022/05/28 03:01:32;;;;;;;3.72;2.17;;;;;;;11.26;77.51;98712.97;1739431;82;21222;-41
2022/05/28 03:03:59;;;;;;;2.95;2.40;;;;;;;11.31;77.20;98716.11;1739434;82;20910;-41
2022/05/28 03:06:27;;;;;;;4.10;2.45;;;;;;;11.32;77.20;98734.53;1739413;82;21437;-41
2022/05/28 03:08:53;;;;;;;5.22;2.15;;;;;;;11.34;77.11;98747.91;1739467;82;21002;-41
2022/05/28 03:11:21;;;;;;;3.58;2.42;;;;;;;11.38;77.12;98742.48;1739246;82;21029;-41
2022/05/28 03:13:49;;;;;;;2.52;1.95;;;;;;;11.44;77.16;98751.84;1739480;82;20966;-40
2022/05/28 03:16:16;;;;;;;3.20;2.10;;;;;;;11.49;77.00;98761.55;1735973;81;21001;-41
2022/05/28 03:18:42;;;;;;;2.98;2.02;;;;;;;11.51;76.88;98757.31;1734359;82;20977;-40
2022/05/28 03:21:09;;;;;;;4.08;2.58;;;;;;;11.55;76.91;98753.25;1734458;82;21077;-41
2022/05/28 03:23:36;;;;;;;3.55;2.62;;;;;;;11.57;76.55;98755.77;1734731;82;21061;-41
2022/05/28 03:26:22;;;;;;;2.72;2.15;;;;;;;11.53;76.54;98753.63;1734627;82;21200;-40
2022/05/28 03:28:49;;;;;;;4.70;2.27;;;;;;;11.50;76.30;98759.05;1734548;82;21013;-40
2022/05/28 03:31:17;;;;;;;4.05;2.37;;;;;;;11.48;76.52;98763.48;1734731;82;21028;-40
2022/05/28 03:33:43;;;;;;;3.58;2.20;;;;;;;11.48;75.94;98752.63;1734673;82;21065;-40
2022/05/28 03:36:10;;;;;;;3.55;2.60;;;;;;;11.43;76.14;98776.05;1734654;82;21296;-40
2022/05/28 03:38:37;;;;;;;4.62;2.52;;;;;;;11.38;76.29;98770.98;1734782;82;23137;-40
2022/05/28 03:41:05;;;;;;;2.62;2.25;;;;;;;11.35;76.44;98773.11;1734553;82;20953;-40
2022/05/28 03:43:33;;;;;;;3.17;2.45;;;;;;;11.40;76.54;98765.19;1734945;82;20986;-40
2022/05/28 03:45:59;;;;;;;3.85;2.50;;;;;;;11.44;76.59;98764.63;1734619;82;21029;-40
2022/05/28 03:48:28;;;;;;;4.33;2.98;;;;;;;11.46;76.79;98757.67;1734525;82;21102;-41
2022/05/28 03:50:55;;;;;;;3.55;2.40;;;;;;;11.49;76.60;98748.77;1734967;82;21160;-40
2022/05/28 03:53:22;;;;;;;3.60;2.52;;;;;;;11.53;76.51;98759.05;1734428;82;20966;-40
2022/05/28 03:55:49;;;;;;;4.60;3.08;;;;;;;11.60;76.32;98759.11;1734527;82;21069;-41
2022/05/28 03:58:16;;;;;;;5.60;3.05;;;;;;;11.62;76.18;98751.92;1734506;82;21081;-40
2022/05/28 04:00:43;;;;;;;4.37;2.87;;;;;;;11.64;75.95;98755.83;1734602;82;21579;-40
2022/05/28 04:03:10;;;;;;;5.60;2.80;;;;;;;11.64;76.08;98762.61;1734665;82;21224;-40
2022/05/28 04:05:38;;;;;;;5.03;3.00;;;;;;;11.66;75.91;98763.02;1734412;82;20950;-41
2022/05/28 04:08:07;;;;;;;4.62;3.00;;;;;;;11.71;75.94;98768.66;1734622;82;20977;-41
2022/05/28 04:10:34;;;;;;;5.37;3.20;;;;;;;11.71;75.56;98770.77;1734502;82;20966;-40
2022/05/28 04:13:00;;;;;;;5.15;2.95;;;;;;;11.70;75.77;98767.88;1734468;82;21093;-40
2022/05/28 04:15:28;;;;;;;5.12;3.02;;;;;;;11.70;75.86;98768.45;1735768;81;21230;-41
2022/05/28 04:17:55;;;;;;;4.95;3.02;;;;;;;11.74;75.39;98761.91;1742762;82;20890;-40
2022/05/28 04:20:22;;;;;;;4.83;3.50;;;;;;;11.78;75.56;98766.00;1742679;82;21069;-41
2022/05/28 04:22:49;;;;;;;4.08;2.92;;;;;;;11.81;75.89;98760.39;1742712;82;20994;-41
2022/05/28 04:25:16;;;;;;;4.67;2.72;;;;;;;11.87;75.54;98772.43;1742698;82;21037;-41
2022/05/28 04:27:44;;;;;;;5.00;2.67;;;;;;;11.96;75.04;98778.28;1742759;82;21240;-41
2022/05/28 04:30:12;;;;;;;4.55;2.90;;;;;;;12.01;74.87;98776.55;1742756;82;20965;-41
2022/05/28 04:32:40;;;;;;;4.60;3.20;;;;;;;12.03;75.10;98781.04;1743087;82;21016;-40
2022/05/28 04:35:08;;;;;;;4.87;2.90;;;;;;;12.00;74.55;98779.88;1742715;82;21088;-40
2022/05/28 04:37:35;;;;;;;7.90;3.47;;;;;;;12.00;74.30;98784.53;1742728;82;21041;-40
2022/05/28 04:40:03;;;;;;;4.97;3.45;;;;;;;11.98;73.83;98775.40;1742821;82;21117;-41
2022/05/28 04:42:30;;;;;;;7.70;3.70;;;;;;;11.95;73.80;98776.75;1742652;82;20958;-41
2022/05/28 04:44:56;;;;;;;5.33;3.10;;;;;;;11.93;74.25;98775.77;1732897;82;21020;-41
2022/05/28 04:47:24;;;;;;;3.72;2.90;;;;;;;11.98;74.60;98778.69;1742672;82;21549;-41
2022/05/28 04:49:50;;;;;;;4.75;3.27;;;;;;;12.03;74.14;98776.39;1742681;82;21026;-41
2022/05/28 04:52:17;;;;;;;5.08;3.25;;;;;;;12.09;74.14;98777.58;1742928;82;21135;-41
2022/05/28 04:54:44;;;;;;;3.80;3.33;;;;;;;12.14;73.87;98772.35;1742715;82;21490;-41
2022/05/28 04:57:11;;;;;;;11.15;3.45;;;;;;;12.20;74.15;98781.09;1743084;82;21013;-41
2022/05/28 04:59:38;;;;;;;6.87;3.00;;;;;;;12.22;73.08;98784.01;1742660;82;21765;-41
2022/05/28 05:02:06;;;;;;;5.50;3.15;;;;;;;12.25;72.97;98790.05;1742704;82;21531;-41
2022/05/28 05:04:33;;;;;;;7.37;4.03;;;;;;;12.29;72.82;98786.18;1742981;82;21676;-41
2022/05/28 05:07:00;;;;;;;5.92;3.37;;;;;;;12.29;73.22;98798.41;1742619;82;20977;-41
2022/05/28 05:09:27;;;;;;;6.25;3.50;;;;;;;12.33;72.98;98793.77;1742529;82;20989;-41
2022/05/28 05:11:55;;;;;;;4.53;3.30;;;;;;;12.37;72.73;98793.19;1742547;82;21021;-41
2022/05/28 05:14:22;;;;;;;6.20;3.17;;;;;;;12.45;72.85;98787.95;1742554;82;21089;-41
2022/05/28 05:16:48;;;;;;;6.53;3.37;;;;;;;12.53;72.96;98799.05;1737750;82;21204;-41
2022/05/28 05:19:15;;;;;;;4.37;3.33;;;;;;;12.59;72.16;98793.41;1734530;82;21481;-41
2022/05/28 05:21:43;;;;;;;6.83;2.90;;;;;;;12.62;71.48;98792.66;1734579;82;21732;-41
2022/05/28 05:24:11;;;;;;;6.42;3.00;;;;;;;12.65;71.29;98795.17;1734608;82;20891;-41
2022/05/28 05:26:38;;;;;;;5.42;3.10;;;;;;;12.72;71.32;98796.55;1734481;82;21030;-41
2022/05/28 05:29:05;;;;;;;4.05;2.87;;;;;;;12.79;70.74;98795.77;1734308;82;21131;-41
2022/05/28 05:31:33;;;;;;;4.03;3.40;;;;;;;12.79;70.77;98795.77;1734585;82;21005;-41
2022/05/28 05:33:59;;;;;;;3.75;3.22;;;;;;;12.76;69.64;98789.75;1734715;82;21032;-41
2022/05/28 05:36:26;;;;;;;5.62;2.87;;;;;;;12.75;69.08;98788.19;1734560;82;20938;-41
2022/05/28 05:38:52;;;;;;;3.50;2.75;;;;;;;12.78;69.23;98798.31;1734943;82;21076;-41
2022/05/28 05:41:19;;;;;;;3.62;2.90;;;;;;;12.86;69.67;98801.22;1734934;82;21201;-41
2022/05/28 05:43:46;;;;;;;3.62;2.83;;;;;;;12.91;69.27;98799.48;1734387;82;21503;-41
2022/05/28 05:46:13;;;;;;;6.35;2.62;;;;;;;13.00;68.79;98803.95;1734377;82;21013;-41
2022/05/28 05:48:40;;;;;;;4.87;2.67;;;;;;;13.12;69.57;98806.30;1734304;82;21017;-41
2022/05/28 05:51:09;;;;;;;4.55;2.75;;;;;;;13.31;68.49;98807.86;1734446;82;21057;-41
2022/05/28 05:53:38;;;;;;;3.70;2.60;;;;;;;13.48;68.56;98811.13;1731020;82;21136;-41
2022/05/28 05:56:05;;;;;;;4.22;2.55;;;;;;;13.61;68.01;98807.41;1704941;84;21127;-41
2022/05/28 05:58:34;;;;;;;3.62;3.12;;;;;;;13.70;67.00;98811.88;1705110;84;21056;-41
2022/05/28 06:01:03;;;;;;;5.03;2.77;;;;;;;13.74;65.87;98811.28;1705334;84;21646;-41
2022/05/28 06:03:30;;;;;;;3.55;2.50;;;;;;;13.72;65.77;98814.97;1705141;84;21057;-41
2022/05/28 06:06:03;;;;;;;5.15;2.58;;;;;;;13.71;65.53;98812.05;1705043;84;21239;-41
2022/05/28 06:08:31;;;;;;;4.20;2.50;;;;;;;13.75;66.46;98824.48;1704944;84;21029;-41
2022/05/28 06:10:59;;;;;;;6.53;3.50;;;;;;;13.79;64.86;98814.39;1705006;84;22207;-41
2022/05/28 06:13:27;;;;;;;4.95;2.50;;;;;;;13.84;64.62;98818.66;1704955;84;21032;-41
2022/05/28 06:15:55;;;;;;;9.58;2.35;;;;;;;13.92;64.05;98817.45;1706007;83;21077;-41
2022/05/28 06:18:21;;;;;;;4.33;2.52;;;;;;;13.98;64.01;98819.19;1718495;83;23117;-41
2022/05/28 06:20:49;;;;;;;8.93;3.25;;;;;;;14.06;64.59;98813.89;1718640;83;21491;-41
2022/05/28 06:23:17;;;;;;;6.37;2.75;;;;;;;14.07;63.34;98821.68;1718935;83;21028;-41
2022/05/28 06:25:44;;;;;;;6.12;2.70;;;;;;;14.00;63.18;98812.16;1718802;83;20984;-41
2022/05/28 06:28:11;;;;;;;4.78;2.55;;;;;;;13.97;64.00;98811.59;1718741;83;21084;-41
2022/05/28 06:30:44;;;;;;;6.42;2.98;;;;;;;14.00;63.64;98812.16;1718780;83;21142;-41
2022/05/28 06:33:11;;;;;;;5.03;2.85;;;;;;;14.11;63.45;98813.48;1718616;83;21505;-41
2022/05/28 06:35:38;;;;;;;5.53;2.70;;;;;;;14.20;64.60;98817.33;1718817;83;21073;-41
2022/05/28 06:38:05;;;;;;;7.67;2.90;;;;;;;14.28;64.06;98812.64;1718807;83;21605;-41
2022/05/28 06:40:32;;;;;;;4.55;2.40;;;;;;;14.32;63.92;98814.17;1718541;83;21579;-41
2022/05/28 06:42:59;;;;;;;4.85;2.60;;;;;;;14.38;63.11;98806.36;1718494;83;23056;-41
2022/05/28 06:45:25;;;;;;;4.15;2.62;;;;;;;14.35;63.05;98809.86;1718556;83;21811;-41
2022/05/28 06:47:52;;;;;;;4.17;2.50;;;;;;;14.34;63.42;98804.99;1718645;83;21073;-41
2022/05/28 06:53:09;;;;;;;7.50;3.15;;;;;;;14.31;62.68;98805.80;1718514;83;21032;-41
2022/05/28 06:55:36;;;;;;;3.60;2.40;;;;;;;14.29;62.57;98802.69;1718773;83;21291;-41
2022/05/28 06:58:06;;;;;;;5.53;2.62;;;;;;;14.37;63.37;98812.23;1718412;83;21539;-41
2022/05/28 07:00:36;;;;;;;3.90;2.27;;;;;;;14.50;62.11;98802.41;1718622;83;21554;-41
2022/05/28 07:03:04;;;;;;;7.20;2.37;;;;;;;14.62;61.93;98801.96;1718251;83;21050;-41
2022/05/28 07:05:30;;;;;;;3.80;2.30;;;;;;;14.74;62.44;98798.75;1718534;83;21626;-41
2022/05/28 07:07:57;;;;;;;7.47;2.92;;;;;;;14.89;61.93;98808.39;1718589;83;21168;-41
2022/05/28 07:10:24;;;;;;;5.72;2.35;;;;;;;14.96;62.38;98806.95;1718564;83;20973;-41
2022/05/28 07:12:51;;;;;;;4.40;1.82;;;;;;;15.02;60.63;98806.72;1718489;83;20976;-41
2022/05/28 07:15:18;;;;;;;4.45;2.47;;;;;;;15.08;58.47;98805.13;1718550;83;20910;-41
2022/05/28 07:17:45;;;;;;;4.20;2.40;;;;;;;15.19;58.54;98807.19;1709178;83;21057;-41
2022/05/28 07:20:12;;;;;;;7.60;2.35;;;;;;;15.31;59.85;98807.84;1705327;84;21794;-41
2022/05/28 07:22:39;;;;;;;5.55;2.20;;;;;;;15.41;59.35;98811.07;1705021;84;21576;-41
2022/05/28 07:25:08;;;;;;;3.42;2.02;;;;;;;15.47;57.82;98811.60;1705245;84;21069;-41
2022/05/28 07:27:34;;;;;;;4.07;2.40;;;;;;;15.58;57.30;98810.17;1705526;84;21057;-41
2022/05/28 07:30:43;;;;;;;5.15;2.22;;;;;;;15.76;55.10;98813.48;1814610;79;22537;-43
2022/05/28 07:33:12;;;;;;;3.42;1.70;;;;;;;15.77;54.69;98815.62;1787966;80;21555;-43
2022/05/28 07:35:39;;;;;;;3.15;2.02;;;;;;;15.81;54.00;98813.04;1788005;80;21573;-44
2022/05/28 07:38:05;;;;;;;4.20;1.77;;;;;;;15.87;55.57;98818.25;1787700;80;20952;-43
2022/05/28 07:40:34;;;;;;;5.97;1.95;;;;;;;15.91;53.82;98818.98;1787764;80;20932;-43
2022/05/28 07:43:03;;;;;;;4.50;1.90;;;;;;;15.95;53.56;98804.67;1787698;80;21019;-43
2022/05/28 07:45:32;;;;;;;4.08;1.75;;;;;;;16.02;54.26;98807.31;1787819;80;21007;-43
2022/05/28 07:47:59;;;;;;;4.87;1.90;;;;;;;16.12;54.00;98815.20;1787873;80;21129;-43
2022/05/28 07:50:26;;;;;;;4.20;1.90;;;;;;;16.21;53.88;98811.99;1787861;80;20964;-43
2022/05/28 07:52:52;;;;;;;5.17;2.33;;;;;;;16.24;52.50;98815.27;1787942;80;20953;-43
2022/05/28 07:55:19;;;;;;;2.77;1.65;;;;;;;16.29;52.27;98810.70;1787811;80;21016;-43
2022/05/28 07:57:46;;;;;;;4.75;1.87;;;;;;;16.34;52.73;98809.66;1757434;80;21595;-43
2022/05/28 08:00:15;;;;;;;6.67;1.82;;;;;;;16.41;51.34;98820.50;1787830;80;23176;-43
2022/05/28 08:02:42;;;;;;;3.87;1.98;;;;;;;16.50;50.78;98810.44;1758086;80;20894;-43
2022/05/28 08:05:09;;;;;;;3.55;1.72;;;;;;;16.61;51.30;98819.87;1787810;80;20972;-43
2022/05/28 08:07:37;;;;;;;3.45;1.80;;;;;;;16.71;49.39;98814.25;1787651;80;21001;-43
2022/05/28 08:10:05;;;;;;;5.92;2.20;;;;;;;16.83;50.60;98820.53;1787855;80;21020;-43
2022/05/28 08:12:31;;;;;;;3.33;1.80;;;;;;;16.97;51.00;98822.87;1787868;80;21047;-43
2022/05/28 08:14:58;;;;;;;5.67;2.37;;;;;;;17.03;48.98;98819.26;1787595;80;20956;-43
2022/05/28 08:17:26;;;;;;;3.50;1.70;;;;;;;17.07;50.27;98817.82;1787726;80;21023;-44
2022/05/28 08:19:52;;;;;;;5.42;1.90;;;;;;;17.05;51.16;98818.23;1787677;80;21007;-43
2022/05/28 08:25:06;;;;;;;3.90;1.80;;;;;;;17.00;52.15;98828.28;1787744;80;21096;-44
2022/05/28 08:27:36;;;;;;;7.30;2.40;;;;;;;17.05;52.10;98817.45;1787892;80;20965;-43
2022/05/28 08:30:06;;;;;;;3.35;1.80;;;;;;;17.13;51.23;98825.75;1784442;80;21020;-44
2022/05/28 08:32:32;;;;;;;4.62;1.70;;;;;;;17.23;48.25;98828.30;1782544;80;21023;-44
2022/05/28 08:35:00;;;;;;;3.35;1.98;;;;;;;17.33;48.01;98830.09;1782590;80;20918;-44
2022/05/28 08:37:27;;;;;;;5.75;1.82;;;;;;;17.40;48.34;98829.20;1782454;80;21206;-44
2022/05/28 08:39:54;;;;;;;3.70;1.90;;;;;;;17.42;47.67;98836.42;1782359;80;20917;-43
2022/05/28 08:42:24;;;;;;;3.55;1.65;;;;;;;17.36;46.18;98836.13;1781865;80;21270;-44
2022/05/28 08:44:51;;;;;;;5.95;2.20;;;;;;;17.25;47.31;98831.41;1781986;80;21068;-43
2022/05/28 08:47:28;;;;;;;4.00;1.72;;;;;;;17.21;49.57;98828.55;1782082;80;21036;-43
2022/05/28 08:49:54;;;;;;;3.10;1.85;;;;;;;17.25;49.70;98828.67;1781790;80;21205;-43
2022/05/28 08:52:34;;;;;;;5.60;2.00;;;;;;;17.37;50.77;98828.09;1782039;80;20961;-43
2022/05/28 08:55:18;;;;;;;4.90;2.02;;;;;;;17.44;48.18;98840.88;1780931;80;21526;-43
2022/05/28 08:58:07;;;;;;;4.60;1.82;;;;;;;17.39;47.98;98837.23;1782078;80;21515;-44
2022/05/28 09:01:02;;;;;;;4.05;1.80;;;;;;;17.38;48.28;98832.95;1782218;80;21526;-43
2022/05/28 09:03:49;;;;;;;4.15;1.70;;;;;;;17.48;46.78;98837.47;1782070;80;21149;-43
2022/05/28 09:06:20;;;;;;;4.22;1.45;;;;;;;17.59;45.89;98828.50;1781892;80;21013;-43
2022/05/28 09:08:52;;;;;;;5.03;1.60;;;;;;;17.65;44.21;98826.05;1777107;80;20957;-44
2022/05/28 09:11:59;;;;;;;4.17;1.75;;;;;;;17.61;44.43;98828.87;1781957;80;21008;-44
2022/05/28 09:14:35;;;;;;;9.18;1.92;;;;;;;17.62;48.50;98826.28;1686273;84;21085;-44
2022/05/28 09:17:20;;;;;;;3.72;1.80;;;;;;;17.72;46.71;98828.65;1686227;85;21233;-44
2022/05/28 09:19:48;;;;;;;5.25;2.20;;;;;;;17.77;46.51;98831.69;1734842;80;21495;-44
2022/05/28 09:22:15;;;;;;;5.45;1.85;;;;;;;17.70;46.32;98818.72;1781611;80;20985;-44
2022/05/28 09:24:42;;;;;;;4.42;2.02;;;;;;;17.66;46.34;98820.16;1781899;80;20975;-44
2022/05/28 09:27:32;;;;;;;4.20;1.65;;;;;;;17.69;46.51;98815.20;1781983;80;20933;-44
2022/05/28 09:30:25;;;;;;;4.92;1.60;;;;;;;17.77;46.44;98822.09;1782152;80;22635;-43
2022/05/28 09:33:29;;;;;;;3.62;1.47;;;;;;;17.89;45.47;98816.59;1782111;80;20941;-44
2022/05/28 09:36:16;;;;;;;4.20;2.05;;;;;;;17.95;44.72;98816.88;1778184;80;20977;-43
2022/05/28 09:39:05;;;;;;;5.17;1.65;;;;;;;18.01;45.12;98802.86;1782103;80;20957;-44
2022/05/28 09:41:56;;;;;;;4.40;1.75;;;;;;;18.13;43.20;98809.06;1782190;80;21883;-43
2022/05/28 09:44:29;;;;;;;;;;;;;;;18.17;43.32;98808.39;1764484;80;21129;-44
2022/05/28 09:47:12;;;;;;;4.03;1.50;;;;;;;18.17;42.78;98806.42;1756328;81;20161;-44
2022/05/28 09:49:54;;;;;;;4.25;1.60;;;;;;;18.05;42.89;98796.70;1756237;81;20980;-44
2022/05/28 09:54:16;;;;;;;5.50;1.77;;;;;;;18.13;43.87;98807.69;1756465;81;20956;-44
2022/05/28 09:55:15;;;;;;;4.58;1.47;;;;;;;18.25;42.76;98798.80;1751453;81;21072;-44
2022/05/28 09:57:56;;;;;;;5.37;1.70;;;;;;;18.36;41.26;98788.98;1756477;81;21046;-43
2022/05/28 10:00:23;;;;;;;4.40;1.75;;;;;;;18.51;43.12;98796.48;1756623;81;20945;-43
2022/05/28 10:05:52;;;;;;;4.20;1.92;;;;;;;18.71;42.80;98792.94;1756179;81;21068;-43
2022/05/28 10:08:18;;;;;;;3.65;1.45;;;;;;;18.76;42.24;98788.31;1755779;81;21041;-43
2022/05/28 10:10:54;;;;;;;6.55;1.95;;;;;;;18.80;42.66;98791.14;1756171;81;21216;-43
2022/05/28 10:13:24;;;;;;;3.50;1.70;;;;;;;18.84;41.55;98775.95;1756134;81;21025;-43
2022/05/28 10:15:55;;;;;;;3.72;1.40;;;;;;;18.94;40.96;98777.67;1756291;81;21000;-43
2022/05/28 10:18:36;;;;;;;6.42;1.92;;;;;;;19.08;40.07;98783.59;1756382;81;21018;-43
2022/05/28 10:21:16;;;;;;;6.80;1.87;;;;;;;19.15;40.91;98779.13;1756401;81;21032;-43
2022/05/28 10:23:50;;;;;;;6.15;1.92;;;;;;;19.13;40.05;98789.16;1756121;81;21201;-44
2022/05/28 10:26:30;;;;;;;5.03;1.50;;;;;;;19.15;41.13;98781.27;1756125;81;20964;-44
2022/05/28 10:29:00;;;;;;;3.07;1.50;;;;;;;19.19;38.83;98790.20;1756452;81;20961;-44
2022/05/28 10:31:35;;;;;;;3.25;1.57;;;;;;;19.09;37.77;98782.98;1748441;81;20972;-43
2022/05/28 10:34:02;;;;;;;4.87;2.10;;;;;;;19.09;39.49;98783.77;1748514;82;21075;-44
2022/05/28 10:36:32;;;;;;;3.95;1.60;;;;;;;19.10;40.23;98776.30;1748600;82;21088;-44
2022/05/28 10:39:11;;;;;;;5.78;1.70;;;;;;;19.19;40.47;98785.30;1748932;82;21068;-44
2022/05/28 10:41:38;;;;;;;4.00;1.67;;;;;;;19.33;39.65;98784.34;1748763;82;21570;-44
2022/05/28 10:44:06;;;;;;;2.27;1.20;;;;;;;19.46;37.85;98783.83;1748521;82;20968;-44
2022/05/28 10:46:53;;;;;;;3.15;1.30;;;;;;;19.41;36.97;98777.45;1748359;82;21535;-44
2022/05/28 10:50:16;;;;;;;4.05;1.35;;;;;;;19.30;37.78;98770.09;1747242;82;21153;-43
2022/05/28 10:52:55;;;;;;;5.85;1.60;;;;;;;19.18;38.03;98779.03;1748296;82;21024;-43
2022/05/28 10:55:36;;;;;;;4.20;1.55;;;;;;;19.09;39.22;98781.62;1748258;81;20993;-44
2022/05/28 10:58:31;;;;;;;3.60;1.37;;;;;;;19.16;39.69;98774.58;1748407;81;20946;-44
2022/05/28 11:01:08;;;;;;;5.10;1.42;;;;;;;19.18;37.64;98764.52;1741139;82;21484;-44
2022/05/28 11:03:51;;;;;;;2.85;1.30;;;;;;;19.27;37.74;98777.81;1747770;82;20984;-44
2022/05/28 11:06:58;;;;;;;3.65;1.30;;;;;;;19.50;37.99;98779.03;1748347;82;21000;-43
2022/05/28 11:09:53;;;;;;;3.47;1.40;;;;;;;19.81;38.12;98773.08;1692959;84;21077;-44
2022/05/28 11:12:56;;;;;;;6.85;1.80;;;;;;;20.09;37.28;98767.39;1742190;82;20989;-43
2022/05/28 11:15:53;;;;;;;2.70;1.40;;;;;;;20.28;35.37;98764.42;1748448;82;21370;-43
2022/05/28 11:18:38;;;;;;;4.35;1.50;;;;;;;20.20;35.75;98769.20;1748866;81;21581;-44
2022/05/28 11:21:40;;;;;;;2.12;1.22;;;;;;;20.18;36.06;98766.91;1748178;82;20949;-44
2022/05/28 11:24:24;;;;;;;3.27;1.37;;;;;;;20.35;36.65;98770.36;1748649;82;20946;-44
2022/05/28 11:27:14;;;;;;;4.05;1.47;;;;;;;20.65;34.97;98761.56;1747883;82;21012;-44
2022/05/28 11:30:24;;;;;;;2.85;1.22;;;;;;;20.65;34.82;98767.67;1748581;81;21053;-45
2022/05/28 11:33:21;;;;;;;4.12;1.32;;;;;;;20.63;34.17;98765.95;1748330;82;21928;-44
2022/05/28 11:35:56;;;;;;;2.50;1.27;;;;;;;20.44;34.15;98768.32;1745385;82;21010;-44
2022/05/28 11:38:38;;;;;;;2.85;1.25;;;;;;;20.47;34.33;98768.84;1748458;82;21539;-44
2022/05/28 11:41:49;;;;;;;3.80;1.52;;;;;;;20.61;32.66;98780.80;1748592;82;21033;-44
2022/05/28 11:44:30;;;;;;;6.00;1.25;;;;;;;20.86;32.54;98755.98;1748462;82;21025;-44
2022/05/28 11:47:45;;;;;;;4.25;1.12;;;;;;;21.15;30.69;98755.25;1748749;82;21100;-44
2022/05/28 11:53:44;;;;;;;3.55;1.15;;;;;;;21.41;28.23;98759.28;1748410;82;20953;-43
2022/05/28 11:56:15;;;;;;;2.80;1.17;;;;;;;21.48;29.14;98760.43;1748410;82;21076;-43
2022/05/28 11:58:48;;;;;;;2.58;1.30;;;;;;;21.46;29.53;98768.38;1748624;82;21546;-44
2022/05/28 12:01:21;;;;;;;1.45;0.93;;;;;;;21.20;29.00;98727.09;1748336;82;21918;-44
2022/05/28 12:03:48;;;;;;;2.67;1.20;;;;;;;21.40;29.70;98781.18;1748329;82;21037;-44
2022/05/28 12:06:35;;;;;;;5.42;1.12;;;;;;;21.45;28.13;98758.55;1748480;82;20927;-44
2022/05/28 12:09:20;;;;;;;2.70;0.95;;;;;;;21.53;28.51;98762.62;1748926;82;21579;-44
2022/05/28 12:11:53;;;;;;;2.27;1.00;;;;;;;21.77;28.97;98768.47;1748761;82;21033;-44